Time;durP1;ratioP1;P1;durP2;ratioP2;P2;SDS_P1;SDS_P2;PMS_P1;PMS_P2;Temp;Humidity;BMP_temperature;BMP_pressure;BME280_temperature;BME280_humidity;BME280_pressure;Samples;Min_cycle;Max_cycle;Signal;HPM_P1;HPM_P2
2022/05/14 00:00:58;;;;;;;7.68;2.50;;;16.80;99.90;;;;;;5018012;28;20027;-88
2022/05/14 00:03:25;;;;;;;7.43;1.90;;;16.80;99.90;;;;;;5017571;28;20019;-87
2022/05/14 00:05:53;;;;;;;8.75;2.25;;;16.70;99.90;;;;;;5014876;28;20053;-88
2022/05/14 00:08:21;;;;;;;14.13;2.70;;;16.70;99.90;;;;;;5013457;28;20006;-89
2022/05/14 00:13:31;;;;;;;10.30;2.20;;;16.60;99.90;;;;;;5018187;28;20070;-88
2022/05/14 00:15:57;;;;;;;7.10;2.15;;;16.50;99.90;;;;;;5017217;28;20038;-88
2022/05/14 00:18:23;;;;;;;9.85;2.30;;;16.40;99.90;;;;;;5017288;28;20046;-87
2022/05/14 00:20:51;;;;;;;10.57;2.72;;;16.40;99.90;;;;;;5018605;28;20059;-87
2022/05/14 00:23:17;;;;;;;6.80;2.10;;;16.40;99.90;;;;;;5018015;28;20054;-89
2022/05/14 00:25:43;;;;;;;8.02;2.28;;;16.30;99.90;;;;;;5002037;28;20007;-88
2022/05/14 00:28:09;;;;;;;7.65;2.30;;;16.30;99.90;;;;;;5018555;28;20034;-87
2022/05/14 00:30:36;;;;;;;12.25;2.67;;;16.20;99.90;;;;;;5017895;28;20065;-88
2022/05/14 00:33:03;;;;;;;15.30;2.63;;;16.20;99.90;;;;;;5017617;28;20064;-88
2022/05/14 00:35:29;;;;;;;13.20;2.63;;;16.20;99.90;;;;;;5010992;28;20030;-88
2022/05/14 00:37:55;;;;;;;6.60;1.98;;;16.10;99.90;;;;;;5010155;28;20569;-87
2022/05/14 00:40:47;;;;;;;9.77;2.30;;;16.20;99.90;;;;;;5010305;28;20045;-87
2022/05/14 00:43:15;;;;;;;7.25;1.92;;;16.10;99.90;;;;;;5008561;28;20010;-88
2022/05/14 00:45:48;;;;;;;5.57;2.30;;;16.00;99.90;;;;;;5008760;28;20033;-88
2022/05/14 00:48:14;;;;;;;6.97;2.40;;;16.00;99.90;;;;;;5010240;28;20085;-89
2022/05/14 00:50:46;;;;;;;7.00;2.22;;;16.00;99.90;;;;;;4995349;28;20030;-88
2022/05/14 00:53:25;;;;;;;5.53;2.22;;;15.90;99.90;;;;;;5012508;28;20038;-87
2022/05/14 00:55:57;;;;;;;12.70;2.65;;;15.90;99.90;;;;;;5011728;28;20042;-89
2022/05/14 00:58:44;;;;;;;9.77;2.35;;;15.90;99.90;;;;;;5017526;28;20037;-89
2022/05/14 01:01:11;;;;;;;5.88;2.33;;;15.80;99.90;;;;;;5013702;28;20036;-86
2022/05/14 01:03:37;;;;;;;8.35;2.17;;;15.80;99.90;;;;;;5019097;28;20018;-87
2022/05/14 01:06:06;;;;;;;11.25;2.25;;;15.80;99.90;;;;;;5018942;28;20065;-88
2022/05/14 01:08:33;;;;;;;4.65;2.17;;;15.80;99.90;;;;;;5020431;28;20330;-87
2022/05/14 01:10:59;;;;;;;5.43;2.08;;;15.70;99.90;;;;;;5020112;28;20030;-88
2022/05/14 01:13:26;;;;;;;6.78;2.20;;;15.70;99.90;;;;;;5005026;28;20014;-87
2022/05/14 01:16:01;;;;;;;6.00;1.90;;;15.60;99.90;;;;;;5019908;28;20035;-88
2022/05/14 01:18:30;;;;;;;5.90;1.95;;;15.60;99.90;;;;;;5020396;28;20079;-88
2022/05/14 01:21:05;;;;;;;10.40;2.53;;;15.60;99.90;;;;;;5020307;28;20018;-87
2022/05/14 01:26:29;;;;;;;6.28;2.17;;;15.60;99.90;;;;;;5020244;28;20022;-87
2022/05/14 01:29:08;;;;;;;13.38;2.45;;;15.50;99.90;;;;;;5020071;28;20093;-87
2022/05/14 01:31:35;;;;;;;7.25;2.33;;;15.50;99.90;;;;;;5020885;28;20014;-88
2022/05/14 01:34:06;;;;;;;6.70;2.33;;;15.50;99.90;;;;;;5020819;28;20022;-88
2022/05/14 01:36:35;;;;;;;10.30;2.25;;;15.50;99.90;;;;;;5020461;28;20023;-87
2022/05/14 01:39:02;;;;;;;8.57;2.25;;;15.40;99.90;;;;;;5020456;28;20030;-87
2022/05/14 01:41:29;;;;;;;9.13;2.40;;;15.40;99.90;;;;;;5020482;28;20054;-88
2022/05/14 01:43:54;;;;;;;5.55;2.10;;;15.40;99.90;;;;;;5020411;28;20027;-88
2022/05/14 01:46:22;;;;;;;12.98;2.42;;;15.40;99.90;;;;;;5020721;28;20014;-88
2022/05/14 01:48:48;;;;;;;8.55;2.00;;;15.40;99.90;;;;;;5003652;28;20041;-87
2022/05/14 01:51:14;;;;;;;7.65;2.08;;;15.40;99.90;;;;;;5019760;28;20015;-87
2022/05/14 01:53:40;;;;;;;14.95;2.20;;;15.40;99.90;;;;;;5018523;28;20045;-88
2022/05/14 01:56:07;;;;;;;7.13;2.05;;;15.40;99.90;;;;;;5018315;28;20022;-87
2022/05/14 01:58:37;;;;;;;7.43;2.10;;;15.40;99.90;;;;;;5018848;28;20098;-88
2022/05/14 02:01:13;;;;;;;9.77;2.05;;;15.30;99.90;;;;;;5004111;28;20038;-87
2022/05/14 02:03:41;;;;;;;12.50;1.85;;;15.40;99.90;;;;;;5020608;28;20010;-87
2022/05/14 02:06:08;;;;;;;13.63;2.38;;;15.40;99.90;;;;;;5020194;28;20003;-87
2022/05/14 02:08:33;;;;;;;5.60;1.80;;;15.30;99.90;;;;;;5019426;28;20041;-88
2022/05/14 02:11:00;;;;;;;12.55;2.40;;;15.30;99.90;;;;;;5019536;28;20026;-86
2022/05/14 02:13:26;;;;;;;6.38;1.88;;;15.20;99.90;;;;;;5019782;28;20034;-87
2022/05/14 02:15:53;;;;;;;8.90;1.60;;;15.20;99.90;;;;;;5019602;28;20040;-87
2022/05/14 02:18:21;;;;;;;8.73;2.40;;;15.20;99.90;;;;;;5019411;28;20030;-87
2022/05/14 02:20:48;;;;;;;7.47;2.20;;;15.20;99.90;;;;;;5019253;28;20042;-89
2022/05/14 02:23:14;;;;;;;6.03;1.83;;;15.10;99.90;;;;;;5019128;28;20038;-87
2022/05/14 02:25:41;;;;;;;12.75;2.55;;;15.10;99.90;;;;;;5019555;28;20015;-89
2022/05/14 02:28:08;;;;;;;12.55;2.47;;;15.10;99.90;;;;;;5019424;28;20045;-88
2022/05/14 02:30:34;;;;;;;16.23;2.22;;;15.00;99.90;;;;;;5019537;28;20082;-90
2022/05/14 02:33:00;;;;;;;13.95;2.60;;;15.00;99.90;;;;;;5019349;28;20023;-87
2022/05/14 02:35:26;;;;;;;8.68;2.35;;;15.00;99.90;;;;;;5019251;28;20019;-87
2022/05/14 02:37:52;;;;;;;6.82;1.83;;;15.00;99.90;;;;;;5018977;28;20060;-87
2022/05/14 02:40:18;;;;;;;5.20;1.67;;;15.00;99.90;;;;;;5019168;28;20018;-87
2022/05/14 02:42:44;;;;;;;6.70;2.10;;;15.00;99.90;;;;;;5019794;28;20058;-86
2022/05/14 02:45:10;;;;;;;8.85;2.20;;;15.00;99.90;;;;;;5019643;28;20030;-88
2022/05/14 02:47:36;;;;;;;7.72;2.30;;;14.90;99.90;;;;;;5018868;28;20034;-86
2022/05/14 02:50:04;;;;;;;4.78;2.00;;;14.90;99.90;;;;;;5019643;28;20025;-87
2022/05/14 02:52:30;;;;;;;7.78;2.10;;;14.90;99.90;;;;;;5018749;28;20041;-88
2022/05/14 02:54:56;;;;;;;3.97;1.90;;;14.90;99.90;;;;;;5018741;28;20042;-88
2022/05/14 02:57:22;;;;;;;11.32;2.00;;;14.90;99.90;;;;;;5018193;28;20029;-89
2022/05/14 02:59:48;;;;;;;7.68;2.25;;;14.80;99.90;;;;;;5002449;28;20010;-86
2022/05/14 03:02:14;;;;;;;10.73;2.10;;;14.80;99.90;;;;;;5018590;28;20022;-86
2022/05/14 03:04:40;;;;;;;8.10;2.20;;;14.80;99.90;;;;;;5002484;28;20038;-87
2022/05/14 03:07:09;;;;;;;7.68;2.30;;;14.80;99.90;;;;;;5018515;28;20058;-88
2022/05/14 03:09:36;;;;;;;12.93;2.33;;;14.70;99.90;;;;;;5020914;23;20027;-83
2022/05/14 03:12:03;;;;;;;6.32;2.17;;;14.70;99.90;;;;;;4997467;28;20042;-85
2022/05/14 03:14:29;;;;;;;9.60;2.05;;;14.70;99.90;;;;;;4984540;28;20066;-83
2022/05/14 03:16:55;;;;;;;7.45;2.20;;;14.80;99.90;;;;;;5005171;28;20034;-84
2022/05/14 03:19:20;;;;;;;8.35;2.10;;;14.80;99.90;;;;;;5010831;28;20039;-82
2022/05/14 03:21:46;;;;;;;11.25;2.30;;;14.70;99.90;;;;;;4989661;28;20027;-82
2022/05/14 03:24:13;;;;;;;6.50;2.05;;;14.70;99.90;;;;;;4991091;28;20050;-83
2022/05/14 03:26:40;;;;;;;8.77;2.45;;;14.70;99.90;;;;;;4993039;28;20045;-82
2022/05/14 03:29:07;;;;;;;7.43;1.98;;;14.80;99.90;;;;;;4991045;28;20375;-82
2022/05/14 03:31:34;;;;;;;8.95;2.38;;;14.70;99.90;;;;;;4990190;28;20406;-83
2022/05/14 03:34:00;;;;;;;6.43;1.95;;;14.70;99.90;;;;;;4986733;28;20019;-83
2022/05/14 03:36:27;;;;;;;3.47;2.05;;;14.70;99.90;;;;;;4983379;28;20031;-83
2022/05/14 03:38:53;;;;;;;10.13;2.35;;;14.70;99.90;;;;;;4986383;28;20086;-81
2022/05/14 03:41:21;;;;;;;6.45;2.40;;;14.70;99.90;;;;;;4986066;28;20034;-84
2022/05/14 03:43:48;;;;;;;9.43;2.40;;;14.70;99.90;;;;;;4986532;28;20046;-82
2022/05/14 03:46:14;;;;;;;8.40;2.30;;;14.70;99.90;;;;;;4986505;28;20023;-83
2022/05/14 03:48:41;;;;;;;11.95;2.30;;;14.70;99.90;;;;;;4986201;28;20023;-83
2022/05/14 03:51:07;;;;;;;14.65;2.22;;;14.70;99.90;;;;;;4994059;28;20078;-81
2022/05/14 03:53:36;;;;;;;8.10;2.40;;;14.70;99.90;;;;;;4998550;28;20057;-85
2022/05/14 03:56:03;;;;;;;7.88;2.10;;;14.70;99.90;;;;;;4996082;28;20046;-84
2022/05/14 03:58:30;;;;;;;5.45;2.03;;;14.80;99.90;;;;;;4979979;28;20058;-84
2022/05/14 04:00:56;;;;;;;6.78;2.35;;;14.80;99.90;;;;;;4980889;28;20577;-82
2022/05/14 04:03:23;;;;;;;7.97;2.33;;;14.80;99.90;;;;;;4962622;28;20038;-83
2022/05/14 04:05:49;;;;;;;12.93;2.40;;;14.80;99.90;;;;;;4985182;28;20030;-84
2022/05/14 04:08:15;;;;;;;6.88;1.98;;;14.90;99.90;;;;;;4989153;28;20102;-83
2022/05/14 04:10:41;;;;;;;6.03;2.28;;;14.80;99.90;;;;;;4975062;28;20027;-84
2022/05/14 04:13:06;;;;;;;8.45;2.30;;;14.90;99.90;;;;;;4975641;28;20075;-84
2022/05/14 04:15:34;;;;;;;6.30;2.15;;;14.90;99.90;;;;;;4976010;28;20049;-84
2022/05/14 04:18:00;;;;;;;6.72;1.77;;;14.90;99.90;;;;;;4975826;28;20122;-83
2022/05/14 04:20:26;;;;;;;5.88;2.10;;;15.00;99.90;;;;;;4991088;28;20043;-86
2022/05/14 04:22:52;;;;;;;13.70;2.10;;;15.00;99.90;;;;;;4996196;28;20042;-85
2022/05/14 04:25:19;;;;;;;9.38;2.03;;;15.00;99.90;;;;;;4989104;28;20050;-84
2022/05/14 04:27:45;;;;;;;16.75;2.58;;;15.00;99.90;;;;;;4979115;28;20022;-81
2022/05/14 04:30:13;;;;;;;6.30;2.17;;;15.10;99.90;;;;;;4964313;28;20117;-81
2022/05/14 04:32:39;;;;;;;6.72;1.92;;;15.10;99.90;;;;;;4981853;28;20034;-84
2022/05/14 04:35:06;;;;;;;4.93;2.05;;;15.20;99.90;;;;;;4993989;28;20120;-83
2022/05/14 04:37:33;;;;;;;4.45;1.52;;;15.20;99.90;;;;;;4983705;28;20062;-83
2022/05/14 04:39:59;;;;;;;5.80;2.10;;;15.30;99.90;;;;;;5003686;28;20041;-84
2022/05/14 04:42:25;;;;;;;5.03;1.85;;;15.40;99.90;;;;;;4982603;28;20383;-84
2022/05/14 04:44:52;;;;;;;8.77;1.77;;;15.50;99.90;;;;;;4985052;28;20023;-82
2022/05/14 04:47:18;;;;;;;10.38;2.53;;;15.60;99.90;;;;;;5000146;28;20046;-85
2022/05/14 04:49:47;;;;;;;6.90;2.30;;;15.80;99.90;;;;;;5000562;28;20030;-83
2022/05/14 04:52:15;;;;;;;5.60;2.08;;;16.10;99.90;;;;;;4984603;28;20103;-84
2022/05/14 04:54:43;;;;;;;6.70;2.00;;;16.30;99.90;;;;;;5000744;28;20034;-83
2022/05/14 04:57:09;;;;;;;8.45;1.85;;;16.30;99.90;;;;;;4986180;28;20038;-83
2022/05/14 04:59:38;;;;;;;4.57;1.92;;;16.40;99.90;;;;;;4980594;28;20033;-84
2022/05/14 05:04:51;;;;;;;7.57;2.10;;;16.40;99.90;;;;;;4983661;28;20035;-83
2022/05/14 05:07:18;;;;;;;6.82;2.35;;;16.50;99.90;;;;;;4977125;28;20031;-82
2022/05/14 05:09:46;;;;;;;10.38;2.00;;;16.60;99.80;;;;;;4966663;28;20093;-83
2022/05/14 05:12:12;;;;;;;4.18;1.95;;;16.60;99.90;;;;;;4964758;28;20547;-83
2022/05/14 05:14:38;;;;;;;6.25;2.45;;;16.60;99.90;;;;;;4969186;28;20028;-82
2022/05/14 05:17:04;;;;;;;10.05;2.53;;;16.60;99.90;;;;;;4961806;28;20042;-86
2022/05/14 05:19:30;;;;;;;8.00;2.17;;;16.80;99.90;;;;;;4963113;28;20023;-83
2022/05/14 05:21:57;;;;;;;20.83;2.53;;;17.00;99.70;;;;;;4971196;28;20027;-84
2022/05/14 05:24:23;;;;;;;7.38;1.90;;;17.10;99.60;;;;;;4979585;28;20050;-84
2022/05/14 05:26:48;;;;;;;7.15;2.13;;;17.10;99.60;;;;;;4981864;28;20027;-83
2022/05/14 05:29:14;;;;;;;9.43;2.42;;;17.10;99.10;;;;;;4995026;28;20039;-83
2022/05/14 05:31:40;;;;;;;8.13;1.77;;;17.10;99.20;;;;;;4982988;28;20470;-82
2022/05/14 05:34:06;;;;;;;10.50;2.13;;;17.10;99.10;;;;;;4991036;28;20037;-82
2022/05/14 05:36:32;;;;;;;8.98;2.15;;;17.20;98.50;;;;;;4996437;28;20030;-82
2022/05/14 05:38:58;;;;;;;7.25;2.30;;;17.20;98.50;;;;;;4994633;28;20039;-80
2022/05/14 05:41:25;;;;;;;5.78;1.77;;;17.30;98.60;;;;;;4997672;28;20006;-85
2022/05/14 05:43:52;;;;;;;4.85;1.67;;;17.50;98.30;;;;;;4976002;28;20035;-80
2022/05/14 05:46:17;;;;;;;5.88;2.00;;;17.60;98.30;;;;;;4994850;28;20114;-81
2022/05/14 05:48:43;;;;;;;4.40;1.92;;;17.70;98.10;;;;;;4994312;28;20043;-82
2022/05/14 05:51:10;;;;;;;8.52;2.15;;;17.70;98.00;;;;;;4981741;28;20015;-84
2022/05/14 05:59:08;;;;;;;3.33;1.80;;;17.80;98.00;;;;;;4987766;28;20034;-82
2022/05/14 06:01:34;;;;;;;10.30;2.50;;;17.80;97.90;;;;;;4987830;28;20042;-83
2022/05/14 06:04:00;;;;;;;4.45;1.90;;;17.90;98.00;;;;;;4989710;28;20095;-83
2022/05/14 06:06:26;;;;;;;5.95;2.33;;;18.00;97.90;;;;;;4976840;28;20498;-84
2022/05/14 06:08:53;;;;;;;6.35;2.15;;;18.10;97.60;;;;;;4989472;28;20038;-84
2022/05/14 06:11:19;;;;;;;7.05;2.13;;;18.10;97.60;;;;;;4992000;28;20078;-84
2022/05/14 06:13:45;;;;;;;13.02;2.38;;;18.30;97.50;;;;;;4997737;28;20035;-84
2022/05/14 06:16:13;;;;;;;9.93;2.30;;;18.30;97.30;;;;;;4998773;28;20031;-84
2022/05/14 06:18:39;;;;;;;9.73;2.60;;;18.30;96.90;;;;;;4997220;28;20090;-83
2022/05/14 06:21:06;;;;;;;8.70;2.35;;;18.30;96.90;;;;;;4998457;28;20015;-84
2022/05/14 06:23:33;;;;;;;6.20;2.85;;;18.40;96.60;;;;;;4995453;28;20530;-84
2022/05/14 06:25:58;;;;;;;6.35;2.47;;;18.30;96.80;;;;;;4996298;28;20033;-85
2022/05/14 06:28:25;;;;;;;8.73;2.63;;;18.20;97.10;;;;;;4997944;28;20047;-85
2022/05/14 06:30:51;;;;;;;9.63;2.35;;;18.20;96.50;;;;;;4989437;28;20023;-83
2022/05/14 06:33:18;;;;;;;9.55;2.30;;;18.20;96.60;;;;;;4966348;28;20027;-84
2022/05/14 06:35:45;;;;;;;13.57;2.83;;;18.10;97.00;;;;;;4989869;28;20019;-85
2022/05/14 06:38:12;;;;;;;6.63;2.67;;;18.20;96.70;;;;;;4993900;28;20054;-82
2022/05/14 06:40:38;;;;;;;9.48;2.80;;;18.30;96.50;;;;;;4988096;28;20018;-83
2022/05/14 06:43:05;;;;;;;8.50;3.10;;;18.30;96.60;;;;;;4990246;28;20029;-83
2022/05/14 06:45:31;;;;;;;7.05;2.85;;;18.40;96.60;;;;;;4983130;28;20042;-83
2022/05/14 06:47:57;;;;;;;10.90;3.55;;;18.40;96.40;;;;;;4991147;28;20027;-86
2022/05/14 06:50:24;;;;;;;12.80;3.35;;;18.50;96.70;;;;;;4989036;28;20011;-83
2022/05/14 06:52:52;;;;;;;8.23;2.90;;;18.50;96.50;;;;;;4989002;28;20094;-85
2022/05/14 06:55:22;;;;;;;14.35;3.63;;;18.60;96.30;;;;;;4988104;28;20023;-84
2022/05/14 06:57:51;;;;;;;7.20;3.25;;;18.60;96.20;;;;;;4979405;28;20061;-82
2022/05/14 07:00:17;;;;;;;10.63;3.40;;;18.60;96.20;;;;;;4973269;28;20094;-85
2022/05/14 07:02:44;;;;;;;11.20;3.88;;;18.60;96.20;;;;;;4991791;28;20043;-84
2022/05/14 07:07:54;;;;;;;10.90;3.70;;;18.60;95.90;;;;;;4997346;28;20023;-86
2022/05/14 07:10:21;;;;;;;12.57;3.67;;;18.50;96.00;;;;;;4997102;28;20116;-84
2022/05/14 07:12:47;;;;;;;13.05;3.72;;;18.50;95.70;;;;;;4991146;28;20137;-83
2022/05/14 07:15:13;;;;;;;11.05;4.05;;;18.50;95.90;;;;;;5017919;28;20027;-84
2022/05/14 07:17:39;;;;;;;9.52;2.92;;;18.60;95.80;;;;;;4982295;28;20031;-85
2022/05/14 07:20:06;;;;;;;16.92;4.03;;;18.70;95.20;;;;;;4984861;28;20019;-86
2022/05/14 07:22:32;;;;;;;7.53;3.38;;;18.70;94.90;;;;;;4996359;28;20057;-86
2022/05/14 07:25:00;;;;;;;14.10;3.25;;;18.70;95.00;;;;;;5030201;28;20003;-84
2022/05/14 07:27:26;;;;;;;9.93;3.22;;;18.70;95.40;;;;;;5009189;28;20113;-86
2022/05/14 07:29:52;;;;;;;12.98;3.53;;;18.80;95.50;;;;;;4995705;28;20331;-88
2022/05/14 07:32:19;;;;;;;12.48;3.63;;;18.80;96.00;;;;;;4996226;28;20065;-86
2022/05/14 07:34:46;;;;;;;9.75;4.10;;;18.80;95.80;;;;;;4996592;28;20030;-86
2022/05/14 07:37:19;;;;;;;13.23;5.22;;;18.80;95.50;;;;;;4996113;28;20090;-87
2022/05/14 07:39:51;;;;;;;9.63;3.40;;;18.90;95.60;;;;;;4995217;28;20057;-86
2022/05/14 07:42:35;;;;;;;13.05;3.72;;;18.90;95.30;;;;;;4996727;28;20046;-85
2022/05/14 07:45:04;;;;;;;14.27;3.28;;;19.00;95.30;;;;;;4984071;28;20038;-87
2022/05/14 07:47:31;;;;;;;10.48;3.42;;;19.10;94.80;;;;;;4984402;28;20112;-86
2022/05/14 07:49:58;;;;;;;16.25;4.03;;;19.20;95.10;;;;;;4985431;28;20090;-85
2022/05/14 07:52:24;;;;;;;10.23;2.83;;;19.30;95.00;;;;;;5027838;28;20038;-88
2022/05/14 07:54:50;;;;;;;8.68;3.75;;;19.30;95.00;;;;;;4996766;28;20033;-87
2022/05/14 07:57:18;;;;;;;8.70;3.33;;;19.40;95.50;;;;;;4995691;28;20050;-88
2022/05/14 07:59:45;;;;;;;8.73;3.38;;;19.60;95.40;;;;;;4999865;28;20043;-86
2022/05/14 08:02:26;;;;;;;13.60;3.72;;;19.70;94.60;;;;;;4979779;28;20392;-87
2022/05/14 08:04:53;;;;;;;9.32;3.03;;;19.80;94.20;;;;;;5023654;28;20140;-85
2022/05/14 08:07:19;;;;;;;12.85;3.00;;;19.90;94.20;;;;;;4999553;28;20019;-88
2022/05/14 08:09:46;;;;;;;10.93;2.15;;;20.00;94.20;;;;;;4999843;28;20037;-88
2022/05/14 08:12:12;;;;;;;6.15;2.28;;;20.00;93.00;;;;;;4998510;28;20054;-86
2022/05/14 08:14:41;;;;;;;7.57;2.53;;;19.90;93.40;;;;;;4997348;28;20110;-89
2022/05/14 08:17:11;;;;;;;6.10;2.30;;;20.00;93.60;;;;;;4989976;28;20022;-88
2022/05/14 08:19:37;;;;;;;5.63;2.15;;;20.10;93.60;;;;;;4988182;28;20030;-88
2022/05/14 08:24:49;;;;;;;5.20;2.05;;;20.20;93.70;;;;;;4991174;28;20105;-86
2022/05/14 08:27:15;;;;;;;5.22;1.70;;;20.20;93.50;;;;;;4993837;28;20053;-87
2022/05/14 08:29:45;;;;;;;8.10;2.03;;;20.10;93.20;;;;;;4994828;28;20027;-87
2022/05/14 08:32:11;;;;;;;5.25;1.63;;;20.20;92.90;;;;;;5026564;28;20031;-86
2022/05/14 08:34:37;;;;;;;8.63;2.17;;;20.20;92.90;;;;;;4994970;28;20070;-87
2022/05/14 08:37:03;;;;;;;7.50;2.20;;;20.30;93.10;;;;;;4993813;28;20057;-86
2022/05/14 08:39:29;;;;;;;7.72;1.98;;;20.40;92.70;;;;;;4991374;28;20030;-88
2022/05/14 08:41:56;;;;;;;10.98;4.72;;;20.50;92.40;;;;;;4986489;28;20031;-86
2022/05/14 08:44:30;;;;;;;5.95;1.77;;;20.60;92.70;;;;;;4987493;28;20010;-88
2022/05/14 08:46:59;;;;;;;7.70;2.10;;;20.60;91.90;;;;;;4988547;28;20479;-87
2022/05/14 08:49:41;;;;;;;7.45;2.42;;;20.70;91.80;;;;;;4984419;28;20031;-86
2022/05/14 08:52:15;;;;;;;15.00;2.08;;;20.80;91.50;;;;;;4992759;28;20041;-86
2022/05/14 08:54:41;;;;;;;7.00;2.57;;;20.80;91.40;;;;;;4996306;28;20105;-87
2022/05/14 08:57:41;;;;;;;6.65;1.73;;;20.90;91.20;;;;;;4968408;28;20055;-85
2022/05/14 09:00:08;;;;;;;8.30;2.17;;;21.10;90.90;;;;;;4996601;28;20035;-88
2022/05/14 09:02:36;;;;;;;4.97;1.88;;;21.10;90.80;;;;;;4998442;28;20042;-85
2022/05/14 09:05:08;;;;;;;6.80;1.67;;;21.10;90.10;;;;;;5017166;28;20191;-85
2022/05/14 09:07:34;;;;;;;7.28;1.67;;;21.20;90.10;;;;;;4984333;28;20034;-87
2022/05/14 09:10:03;;;;;;;6.35;1.73;;;21.30;90.30;;;;;;5067943;23;20053;-89
2022/05/14 09:12:34;;;;;;;7.82;1.80;;;21.40;89.90;;;;;;5020768;28;20019;-90
2022/05/14 09:15:12;;;;;;;7.85;2.15;;;21.60;90.60;;;;;;5003511;28;20043;-90
2022/05/14 09:17:39;;;;;;;2.75;1.30;;;21.80;90.20;;;;;;5020478;28;20049;-90
2022/05/14 09:20:07;;;;;;;4.45;1.90;;;21.70;89.80;;;;;;5020155;28;20010;-90
2022/05/14 09:22:39;;;;;;;6.15;2.10;;;21.80;90.60;;;;;;5019675;28;20031;-90
2022/05/14 09:25:11;;;;;;;9.35;1.75;;;21.80;90.80;;;;;;5020086;28;20046;-88
2022/05/14 09:27:47;;;;;;;3.35;1.65;;;21.90;90.50;;;;;;5019707;28;20034;-89
2022/05/14 09:30:31;;;;;;;8.73;1.63;;;22.10;90.10;;;;;;5019792;28;20015;-91
2022/05/14 09:32:57;;;;;;;3.67;1.67;;;22.30;90.00;;;;;;5003739;28;20033;-91
2022/05/14 09:35:29;;;;;;;7.47;2.10;;;22.60;89.10;;;;;;5003012;28;20027;-91
2022/05/14 09:38:06;;;;;;;5.30;1.45;;;22.90;89.20;;;;;;5019235;28;20109;-90
2022/05/14 09:40:33;;;;;;;10.63;2.38;;;23.40;88.10;;;;;;5002745;28;20026;-90
2022/05/14 09:43:16;;;;;;;10.43;2.00;;;24.00;86.50;;;;;;5002177;28;20064;-88
2022/05/14 09:46:10;;;;;;;6.25;1.65;;;24.70;82.00;;;;;;5020212;28;20014;-89
2022/05/14 09:48:47;;;;;;;3.65;1.52;;;25.40;80.10;;;;;;5020323;28;20050;-89
2022/05/14 09:51:25;;;;;;;6.25;1.67;;;26.40;78.70;;;;;;5019757;28;20027;-91
2022/05/14 09:53:51;;;;;;;12.00;2.13;;;26.70;78.40;;;;;;5001865;28;20034;-90
2022/05/14 09:56:32;;;;;;;5.43;1.60;;;27.30;77.40;;;;;;5020006;28;20045;-90
2022/05/14 10:01:41;;;;;;;12.00;2.00;;;29.20;71.80;;;;;;4980890;28;20047;-89
2022/05/14 10:04:32;;;;;;;4.15;1.48;;;30.20;70.30;;;;;;4981985;29;20030;-90
2022/05/14 10:07:14;;;;;;;2.85;1.20;;;30.70;66.90;;;;;;4982126;29;20011;-89
2022/05/14 10:10:01;;;;;;;5.05;1.90;;;31.70;62.80;;;;;;4992654;28;20034;-87
2022/05/14 10:12:40;;;;;;;5.43;1.55;;;32.20;59.00;;;;;;4982222;29;20016;-89
2022/05/14 10:15:44;;;;;;;7.15;2.03;;;32.40;58.00;;;;;;4980691;28;20019;-89
2022/05/14 10:18:31;;;;;;;7.70;2.75;;;33.20;57.00;;;;;;4980650;28;20091;-91
2022/05/14 10:21:35;;;;;;;4.95;1.48;;;34.10;55.20;;;;;;4980033;28;20031;-90
2022/05/14 10:27:43;;;;;;;3.50;1.30;;;34.00;54.40;;;;;;4976251;29;20011;-89
2022/05/14 10:30:20;;;;;;;5.57;1.60;;;34.40;52.70;;;;;;4963443;28;20023;-90
2022/05/14 10:32:50;;;;;;;6.28;1.60;;;34.60;51.60;;;;;;4964351;28;20016;-90
2022/05/14 10:35:19;;;;;;;4.55;1.55;;;35.30;50.70;;;;;;4980357;28;20050;-91
2022/05/14 10:38:11;;;;;;;4.85;1.75;;;36.30;50.40;;;;;;4980055;28;20023;-90
2022/05/14 10:40:47;;;;;;;8.35;1.90;;;36.50;49.00;;;;;;4995658;28;20091;-91
2022/05/14 10:43:35;;;;;;;6.90;1.33;;;37.20;47.80;;;;;;4979352;28;20015;-91
2022/05/14 10:46:07;;;;;;;5.22;1.40;;;37.80;47.30;;;;;;4978773;28;20035;-90
2022/05/14 10:48:45;;;;;;;4.30;1.50;;;38.00;46.80;;;;;;4971951;28;20023;-89
2022/05/14 10:51:20;;;;;;;5.10;1.40;;;38.10;46.10;;;;;;4970355;28;20035;-90
2022/05/14 10:53:46;;;;;;;3.25;1.45;;;37.50;46.30;;;;;;4968817;29;20027;-89
2022/05/14 10:56:33;;;;;;;5.35;1.45;;;36.80;46.40;;;;;;4969603;29;20027;-89
2022/05/14 10:59:09;;;;;;;5.25;1.33;;;36.50;46.80;;;;;;4967502;28;20031;-88
2022/05/14 11:02:01;;;;;;;4.60;1.67;;;35.90;47.00;;;;;;4971838;28;20467;-89
2022/05/14 11:04:43;;;;;;;2.53;1.60;;;36.20;46.60;;;;;;4976232;29;20035;-90
2022/05/14 11:07:31;;;;;;;3.53;1.52;;;37.10;46.80;;;;;;4977658;28;20039;-89
2022/05/14 11:10:17;;;;;;;6.05;1.67;;;37.80;46.20;;;;;;4959662;29;20037;-89
2022/05/14 11:12:46;;;;;;;3.92;1.42;;;38.60;45.70;;;;;;4974617;29;20031;-89
2022/05/14 11:15:27;;;;;;;4.15;1.48;;;38.40;46.00;;;;;;4975605;29;20058;-89
2022/05/14 11:18:10;;;;;;;3.78;1.70;;;38.40;45.30;;;;;;4971250;29;20119;-89
2022/05/14 11:20:37;;;;;;;7.30;1.50;;;38.50;44.60;;;;;;4971121;29;20154;-89
2022/05/14 11:23:10;;;;;;;3.78;1.25;;;38.70;43.70;;;;;;4977768;28;20015;-89
2022/05/14 11:25:37;;;;;;;7.07;1.40;;;38.30;43.60;;;;;;4978483;29;20046;-89
2022/05/14 11:28:18;;;;;;;5.28;1.88;;;38.00;44.00;;;;;;4976138;28;20058;-90
2022/05/14 11:30:47;;;;;;;5.45;1.45;;;38.30;44.20;;;;;;4958400;29;20035;-89
2022/05/14 11:33:25;;;;;;;3.25;1.70;;;37.60;44.40;;;;;;4977718;28;20031;-89
2022/05/14 11:35:56;;;;;;;5.45;1.48;;;37.50;44.40;;;;;;4975053;28;20583;-89
2022/05/14 11:38:25;;;;;;;4.50;1.55;;;37.60;44.30;;;;;;4970904;28;20039;-89
2022/05/14 11:41:28;;;;;;;4.35;1.38;;;38.40;44.00;;;;;;4970975;29;20050;-90
2022/05/14 11:44:06;;;;;;;10.10;1.70;;;38.40;43.00;;;;;;4974625;28;20050;-90
2022/05/14 11:46:50;;;;;;;5.13;1.60;;;38.40;43.20;;;;;;4979074;28;20023;-89
2022/05/14 11:49:29;;;;;;;1.75;1.08;;;38.50;42.90;;;;;;4978346;28;20043;-90
2022/05/14 11:52:10;;;;;;;4.78;1.33;;;38.80;42.80;;;;;;4979100;28;20054;-89
2022/05/14 11:54:58;;;;;;;2.08;1.13;;;39.10;42.90;;;;;;4978848;28;20063;-91
2022/05/14 11:57:45;;;;;;;6.68;1.40;;;38.70;43.00;;;;;;4979306;28;20039;-90
2022/05/14 12:00:19;;;;;;;3.65;1.40;;;39.30;42.80;;;;;;4978989;28;20058;-90
2022/05/14 12:02:59;;;;;;;5.85;1.60;;;39.30;42.80;;;;;;4979115;28;20020;-89
2022/05/14 12:05:57;;;;;;;3.55;1.33;;;39.00;43.00;;;;;;4978948;28;20032;-89
2022/05/14 12:08:29;;;;;;;7.20;1.70;;;39.10;42.60;;;;;;4936378;28;20027;-91
2022/05/14 12:11:52;;;;;;;5.53;1.40;;;38.60;42.90;;;;;;4962236;28;20058;-89
2022/05/14 12:14:26;;;;;;;5.22;1.60;;;38.80;42.90;;;;;;4946731;28;20046;-91
2022/05/14 12:16:56;;;;;;;4.32;1.35;;;38.70;42.60;;;;;;4993970;28;20020;-90
2022/05/14 12:19:26;;;;;;;5.25;1.70;;;39.40;42.40;;;;;;4978259;28;20124;-90
2022/05/14 12:21:59;;;;;;;6.75;1.63;;;39.50;42.00;;;;;;4978543;28;20046;-90
2022/05/14 12:24:34;;;;;;;5.13;1.60;;;38.80;42.50;;;;;;4977876;28;20086;-89
2022/05/14 12:27:01;;;;;;;6.65;1.73;;;39.00;42.40;;;;;;4977348;28;20042;-89
2022/05/14 12:29:32;;;;;;;3.55;2.08;;;39.00;42.60;;;;;;4977960;28;20054;-89
2022/05/14 12:34:46;;;;;;;4.93;1.27;;;39.10;41.90;;;;;;4977882;28;20023;-89
2022/05/14 12:37:23;;;;;;;4.60;1.38;;;39.10;42.40;;;;;;4978982;28;20011;-89
2022/05/14 12:39:52;;;;;;;3.90;1.40;;;39.10;42.20;;;;;;4978218;28;20029;-90
2022/05/14 12:42:37;;;;;;;3.78;1.58;;;39.00;41.80;;;;;;4978820;28;20020;-88
2022/05/14 12:45:05;;;;;;;5.22;1.80;;;39.10;41.90;;;;;;4981720;28;20015;-90
2022/05/14 12:47:34;;;;;;;6.38;1.65;;;39.10;41.50;;;;;;4980092;28;20035;-89
2022/05/14 12:50:01;;;;;;;3.47;1.42;;;38.00;42.30;;;;;;4981768;28;20008;-90
2022/05/14 12:52:32;;;;;;;5.90;1.50;;;38.20;42.10;;;;;;4981900;28;20058;-89
2022/05/14 12:55:16;;;;;;;4.28;1.45;;;38.10;42.40;;;;;;4982345;28;20025;-90
2022/05/14 12:57:44;;;;;;;5.50;1.60;;;38.60;42.10;;;;;;4982368;28;20058;-91
2022/05/14 13:00:15;;;;;;;6.15;1.60;;;38.90;42.10;;;;;;4981237;28;20039;-91
2022/05/14 13:03:03;;;;;;;3.05;1.30;;;39.30;41.90;;;;;;4964311;28;20035;-89
2022/05/14 13:05:38;;;;;;;5.65;1.40;;;39.40;42.00;;;;;;4979898;28;20028;-89
2022/05/14 13:08:12;;;;;;;3.60;1.30;;;39.50;41.90;;;;;;4979341;28;20063;-90
2022/05/14 13:10:39;;;;;;;5.18;1.58;;;38.90;41.80;;;;;;4962460;28;20058;-91
2022/05/14 13:13:08;;;;;;;3.40;1.75;;;38.90;41.60;;;;;;4977681;28;20050;-90
2022/05/14 13:15:41;;;;;;;8.35;1.85;;;39.40;41.70;;;;;;4993858;28;20107;-90
2022/05/14 13:18:31;;;;;;;3.47;1.52;;;39.30;41.80;;;;;;4979117;28;20062;-89
2022/05/14 13:21:05;;;;;;;3.92;1.50;;;39.60;41.50;;;;;;4978480;28;20039;-91
2022/05/14 13:23:32;;;;;;;6.90;1.52;;;39.00;42.30;;;;;;4977622;28;20050;-89
2022/05/14 13:26:08;;;;;;;4.97;1.35;;;39.40;41.90;;;;;;4969933;28;20023;-89
2022/05/14 13:28:38;;;;;;;7.32;1.70;;;39.30;41.80;;;;;;4972026;28;20030;-89
2022/05/14 13:31:19;;;;;;;3.63;1.33;;;39.70;42.10;;;;;;4970488;29;20090;-89